sensor_id;sensor_type;location;lat;lon;timestamp;pressure;altitude;pressure_sealevel;temperature;humidity
62544;BME280;48597;49.030;1.822;2022-08-21T00:00:17;101053.69;;;23.55;40.35
62544;BME280;48597;49.030;1.822;2022-08-21T00:02:49;101059.91;;;23.55;40.35
62544;BME280;48597;49.030;1.822;2022-08-21T00:05:15;101054.88;;;23.52;40.48
62544;BME280;48597;49.030;1.822;2022-08-21T00:07:41;101047.81;;;23.51;40.41
62544;BME280;48597;49.030;1.822;2022-08-21T00:10:07;101046.13;;;23.50;40.41
62544;BME280;48597;49.030;1.822;2022-08-21T00:12:32;101037.41;;;23.48;40.30
62544;BME280;48597;49.030;1.822;2022-08-21T00:14:58;101027.84;;;23.45;40.34
62544;BME280;48597;49.030;1.822;2022-08-21T00:17:24;101029.88;;;23.43;40.27
62544;BME280;48597;49.030;1.822;2022-08-21T00:19:49;101019.28;;;23.42;40.25
62544;BME280;48597;49.030;1.822;2022-08-21T00:22:15;101030.00;;;23.42;40.35
62544;BME280;48597;49.030;1.822;2022-08-21T00:24:40;101020.28;;;23.41;40.31
62544;BME280;48597;49.030;1.822;2022-08-21T00:27:06;101024.00;;;23.40;40.23
62544;BME280;48597;49.030;1.822;2022-08-21T00:29:31;101021.44;;;23.38;40.32
62544;BME280;48597;49.030;1.822;2022-08-21T00:31:56;101024.31;;;23.37;40.51
62544;BME280;48597;49.030;1.822;2022-08-21T00:34:22;101020.97;;;23.35;40.49
62544;BME280;48597;49.030;1.822;2022-08-21T00:36:47;101019.47;;;23.32;40.31
62544;BME280;48597;49.030;1.822;2022-08-21T00:39:13;101025.00;;;23.31;40.32
62544;BME280;48597;49.030;1.822;2022-08-21T00:41:39;101026.69;;;23.32;40.30
62544;BME280;48597;49.030;1.822;2022-08-21T00:44:06;101039.41;;;23.30;40.37
62544;BME280;48597;49.030;1.822;2022-08-21T00:46:32;101031.53;;;23.28;40.43
62544;BME280;48597;49.030;1.822;2022-08-21T00:48:57;101029.03;;;23.26;40.32
62544;BME280;48597;49.030;1.822;2022-08-21T00:51:27;101022.97;;;23.24;40.31
62544;BME280;48597;49.030;1.822;2022-08-21T00:53:56;101020.63;;;23.21;40.32
62544;BME280;48597;49.030;1.822;2022-08-21T00:56:24;101022.47;;;23.21;40.36
62544;BME280;48597;49.030;1.822;2022-08-21T00:58:50;101028.03;;;23.19;40.45
62544;BME280;48597;49.030;1.822;2022-08-21T01:01:17;101024.66;;;23.17;40.32
62544;BME280;48597;49.030;1.822;2022-08-21T01:03:42;101031.69;;;23.18;40.46
62544;BME280;48597;49.030;1.822;2022-08-21T01:06:08;101028.34;;;23.16;40.42
62544;BME280;48597;49.030;1.822;2022-08-21T01:08:34;101027.66;;;23.14;40.61
62544;BME280;48597;49.030;1.822;2022-08-21T01:11:00;101034.22;;;23.12;40.36
62544;BME280;48597;49.030;1.822;2022-08-21T01:13:28;101039.75;;;23.10;40.31
62544;BME280;48597;49.030;1.822;2022-08-21T01:15:58;101032.69;;;23.09;40.44
62544;BME280;48597;49.030;1.822;2022-08-21T01:18:26;101032.88;;;23.08;40.39
62544;BME280;48597;49.030;1.822;2022-08-21T01:21:04;101033.03;;;23.06;40.43
62544;BME280;48597;49.030;1.822;2022-08-21T01:23:30;101036.72;;;23.05;40.39
62544;BME280;48597;49.030;1.822;2022-08-21T01:25:56;101032.38;;;23.04;40.44
62544;BME280;48597;49.030;1.822;2022-08-21T01:28:22;101020.94;;;23.02;40.41
62544;BME280;48597;49.030;1.822;2022-08-21T01:30:48;101026.50;;;23.00;40.61
62544;BME280;48597;49.030;1.822;2022-08-21T01:33:17;101021.28;;;22.99;40.49
62544;BME280;48597;49.030;1.822;2022-08-21T01:35:43;101030.34;;;22.98;40.52
62544;BME280;48597;49.030;1.822;2022-08-21T01:38:08;101022.47;;;22.96;40.45
62544;BME280;48597;49.030;1.822;2022-08-21T01:40:34;101027.97;;;22.95;40.46
62544;BME280;48597;49.030;1.822;2022-08-21T01:43:00;101029.00;;;22.94;40.46
62544;BME280;48597;49.030;1.822;2022-08-21T01:45:25;101022.13;;;22.91;40.40
62544;BME280;48597;49.030;1.822;2022-08-21T01:47:51;101008.81;;;22.90;40.52
62544;BME280;48597;49.030;1.822;2022-08-21T01:50:18;101015.22;;;22.89;40.42
62544;BME280;48597;49.030;1.822;2022-08-21T01:52:44;101017.19;;;22.87;40.42
62544;BME280;48597;49.030;1.822;2022-08-21T01:55:14;101011.84;;;22.87;40.37
62544;BME280;48597;49.030;1.822;2022-08-21T01:57:40;101013.69;;;22.86;40.46
62544;BME280;48597;49.030;1.822;2022-08-21T02:00:09;101009.50;;;22.84;40.30
62544;BME280;48597;49.030;1.822;2022-08-21T02:02:36;101014.19;;;22.82;40.53
62544;BME280;48597;49.030;1.822;2022-08-21T02:05:03;101019.56;;;22.82;40.51
62544;BME280;48597;49.030;1.822;2022-08-21T02:07:36;101017.03;;;22.80;40.54
62544;BME280;48597;49.030;1.822;2022-08-21T02:10:03;101019.88;;;22.78;40.40
62544;BME280;48597;49.030;1.822;2022-08-21T02:12:29;101015.53;;;22.77;40.42
62544;BME280;48597;49.030;1.822;2022-08-21T02:14:55;101014.88;;;22.75;40.52
62544;BME280;48597;49.030;1.822;2022-08-21T02:17:20;101013.16;;;22.74;40.43
62544;BME280;48597;49.030;1.822;2022-08-21T02:19:46;101019.53;;;22.73;40.34
62544;BME280;48597;49.030;1.822;2022-08-21T02:22:11;101016.16;;;22.71;40.49
62544;BME280;48597;49.030;1.822;2022-08-21T02:24:38;101021.53;;;22.71;40.48
62544;BME280;48597;49.030;1.822;2022-08-21T02:27:04;101025.22;;;22.70;40.28
62544;BME280;48597;49.030;1.822;2022-08-21T02:29:29;101023.56;;;22.69;40.45
62544;BME280;48597;49.030;1.822;2022-08-21T02:31:54;101020.19;;;22.67;40.47
62544;BME280;48597;49.030;1.822;2022-08-21T02:34:20;101025.91;;;22.64;40.48
62544;BME280;48597;49.030;1.822;2022-08-21T02:36:46;101009.94;;;22.63;40.40
62544;BME280;48597;49.030;1.822;2022-08-21T02:39:11;101014.47;;;22.62;40.32
62544;BME280;48597;49.030;1.822;2022-08-21T02:41:36;101006.75;;;22.59;40.41
62544;BME280;48597;49.030;1.822;2022-08-21T02:44:02;101010.44;;;22.58;40.24
62544;BME280;48597;49.030;1.822;2022-08-21T02:46:27;101006.09;;;22.57;40.39
62544;BME280;48597;49.030;1.822;2022-08-21T02:48:53;101018.81;;;22.55;40.33
62544;BME280;48597;49.030;1.822;2022-08-21T02:51:19;101012.78;;;22.53;40.38
62544;BME280;48597;49.030;1.822;2022-08-21T02:53:46;101020.81;;;22.53;40.29
62544;BME280;48597;49.030;1.822;2022-08-21T02:56:16;101012.94;;;22.51;40.45
62544;BME280;48597;49.030;1.822;2022-08-21T02:58:45;101010.41;;;22.50;40.42
62544;BME280;48597;49.030;1.822;2022-08-21T03:01:11;101014.13;;;22.49;40.50
62544;BME280;48597;49.030;1.822;2022-08-21T03:03:39;101012.44;;;22.48;40.43
62544;BME280;48597;49.030;1.822;2022-08-21T03:06:07;101010.09;;;22.45;40.44
62544;BME280;48597;49.030;1.822;2022-08-21T03:08:33;101013.75;;;22.44;40.32
62544;BME280;48597;49.030;1.822;2022-08-21T03:10:58;101009.25;;;22.44;40.46
62544;BME280;48597;49.030;1.822;2022-08-21T03:13:25;100997.81;;;22.42;40.39
62544;BME280;48597;49.030;1.822;2022-08-21T03:15:52;100991.63;;;22.42;40.29
62544;BME280;48597;49.030;1.822;2022-08-21T03:18:17;100995.31;;;22.41;40.42
62544;BME280;48597;49.030;1.822;2022-08-21T03:20:43;100983.06;;;22.38;40.42
62544;BME280;48597;49.030;1.822;2022-08-21T03:23:10;100986.75;;;22.37;40.42
62544;BME280;48597;49.030;1.822;2022-08-21T03:25:36;100982.56;;;22.35;40.46
62544;BME280;48597;49.030;1.822;2022-08-21T03:28:03;100976.34;;;22.34;40.33
62544;BME280;48597;49.030;1.822;2022-08-21T03:30:30;100970.28;;;22.32;40.38
62544;BME280;48597;49.030;1.822;2022-08-21T03:33:00;100962.44;;;22.30;40.49
62544;BME280;48597;49.030;1.822;2022-08-21T03:35:27;100968.81;;;22.29;40.42
62544;BME280;48597;49.030;1.822;2022-08-21T03:37:53;100967.13;;;22.28;40.43
62544;BME280;48597;49.030;1.822;2022-08-21T03:40:19;100964.78;;;22.25;40.38
62544;BME280;48597;49.030;1.822;2022-08-21T03:42:45;100960.25;;;22.26;40.37
62544;BME280;48597;49.030;1.822;2022-08-21T03:45:14;100961.25;;;22.25;40.47
62544;BME280;48597;49.030;1.822;2022-08-21T03:47:51;100963.25;;;22.23;40.35
62544;BME280;48597;49.030;1.822;2022-08-21T03:50:16;100960.72;;;22.21;40.44
62544;BME280;48597;49.030;1.822;2022-08-21T03:52:42;100962.59;;;22.21;40.51
62544;BME280;48597;49.030;1.822;2022-08-21T03:55:07;100960.88;;;22.20;40.55
62544;BME280;48597;49.030;1.822;2022-08-21T03:57:33;100976.13;;;22.19;40.56
62544;BME280;48597;49.030;1.822;2022-08-21T03:59:58;100976.44;;;22.16;40.36
62544;BME280;48597;49.030;1.822;2022-08-21T04:02:23;100981.81;;;22.16;40.44
62544;BME280;48597;49.030;1.822;2022-08-21T04:04:48;100982.81;;;22.15;40.36
62544;BME280;48597;49.030;1.822;2022-08-21T04:07:14;100983.81;;;22.14;40.47
62544;BME280;48597;49.030;1.822;2022-08-21T04:09:39;100985.78;;;22.12;40.55
62544;BME280;48597;49.030;1.822;2022-08-21T04:12:05;100983.25;;;22.11;40.30
62544;BME280;48597;49.030;1.822;2022-08-21T04:14:30;100979.75;;;22.10;40.48
62544;BME280;48597;49.030;1.822;2022-08-21T04:16:56;100987.09;;;22.08;40.44
62544;BME280;48597;49.030;1.822;2022-08-21T04:19:21;100978.41;;;22.06;40.37
62544;BME280;48597;49.030;1.822;2022-08-21T04:21:46;100988.09;;;22.07;40.42
62544;BME280;48597;49.030;1.822;2022-08-21T04:24:12;100977.69;;;22.04;40.58
62544;BME280;48597;49.030;1.822;2022-08-21T04:26:37;100979.53;;;22.03;40.46
62544;BME280;48597;49.030;1.822;2022-08-21T04:29:04;100991.09;;;22.04;40.38
62544;BME280;48597;49.030;1.822;2022-08-21T04:31:34;100983.41;;;22.01;40.32
62544;BME280;48597;49.030;1.822;2022-08-21T04:33:59;100983.41;;;22.01;40.34
62544;BME280;48597;49.030;1.822;2022-08-21T04:36:25;100985.38;;;21.99;40.38
62544;BME280;48597;49.030;1.822;2022-08-21T04:38:50;100989.09;;;21.98;40.33
62544;BME280;48597;49.030;1.822;2022-08-21T04:41:16;100990.09;;;21.97;40.42
62544;BME280;48597;49.030;1.822;2022-08-21T04:43:41;100988.56;;;21.94;40.20
62544;BME280;48597;49.030;1.822;2022-08-21T04:46:07;100986.00;;;21.93;40.37
62544;BME280;48597;49.030;1.822;2022-08-21T04:48:33;100986.38;;;21.90;40.30
62544;BME280;48597;49.030;1.822;2022-08-21T04:51:06;100988.03;;;21.91;40.47
62544;BME280;48597;49.030;1.822;2022-08-21T04:53:54;100991.72;;;21.90;40.57
62544;BME280;48597;49.030;1.822;2022-08-21T04:56:32;100990.00;;;21.89;40.38
62544;BME280;48597;49.030;1.822;2022-08-21T04:59:03;100985.84;;;21.86;40.42
62544;BME280;48597;49.030;1.822;2022-08-21T05:01:30;100982.47;;;21.84;40.49
62544;BME280;48597;49.030;1.822;2022-08-21T05:03:59;100986.16;;;21.83;40.63
62544;BME280;48597;49.030;1.822;2022-08-21T05:06:25;100990.50;;;21.84;40.51
62544;BME280;48597;49.030;1.822;2022-08-21T05:08:53;100990.81;;;21.81;40.41
62544;BME280;48597;49.030;1.822;2022-08-21T05:11:20;100989.97;;;21.80;40.45
62544;BME280;48597;49.030;1.822;2022-08-21T05:13:47;100985.63;;;21.79;40.42
62544;BME280;48597;49.030;1.822;2022-08-21T05:16:13;100973.25;;;21.78;40.47
62544;BME280;48597;49.030;1.822;2022-08-21T05:18:38;100981.28;;;21.78;40.33
62544;BME280;48597;49.030;1.822;2022-08-21T05:21:04;100979.59;;;21.77;40.59
62544;BME280;48597;49.030;1.822;2022-08-21T05:23:30;100983.59;;;21.73;40.66
62544;BME280;48597;49.030;1.822;2022-08-21T05:25:55;100990.75;;;21.73;40.73
62544;BME280;48597;49.030;1.822;2022-08-21T05:28:21;100985.41;;;21.73;40.60
62544;BME280;48597;49.030;1.822;2022-08-21T05:30:46;101001.47;;;21.73;40.57
62544;BME280;48597;49.030;1.822;2022-08-21T05:33:12;100992.59;;;21.72;40.53
62544;BME280;48597;49.030;1.822;2022-08-21T05:35:38;101002.50;;;21.72;40.64
62544;BME280;48597;49.030;1.822;2022-08-21T05:38:04;100998.97;;;21.71;40.69
62544;BME280;48597;49.030;1.822;2022-08-21T05:40:30;100996.47;;;21.70;40.57
62544;BME280;48597;49.030;1.822;2022-08-21T05:42:55;100991.25;;;21.68;40.79
62544;BME280;48597;49.030;1.822;2022-08-21T05:45:23;100996.59;;;21.68;40.72
62544;BME280;48597;49.030;1.822;2022-08-21T05:47:49;100998.44;;;21.68;40.69
62544;BME280;48597;49.030;1.822;2022-08-21T05:50:14;100994.94;;;21.67;40.85
62544;BME280;48597;49.030;1.822;2022-08-21T05:52:39;100997.91;;;21.64;40.87
62544;BME280;48597;49.030;1.822;2022-08-21T05:55:05;101003.28;;;21.64;40.88
62544;BME280;48597;49.030;1.822;2022-08-21T05:57:30;100997.09;;;21.64;41.10
62544;BME280;48597;49.030;1.822;2022-08-21T05:59:56;101001.59;;;21.63;41.08
62544;BME280;48597;49.030;1.822;2022-08-21T06:02:21;101006.97;;;21.63;41.28
62544;BME280;48597;49.030;1.822;2022-08-21T06:04:47;101003.59;;;21.61;41.32
62544;BME280;48597;49.030;1.822;2022-08-21T06:07:13;101006.97;;;21.63;41.52
62544;BME280;48597;49.030;1.822;2022-08-21T06:09:39;101005.13;;;21.64;41.74
62544;BME280;48597;49.030;1.822;2022-08-21T06:12:09;101002.44;;;21.64;41.94
62544;BME280;48597;49.030;1.822;2022-08-21T06:14:36;100991.56;;;21.65;41.83
62544;BME280;48597;49.030;1.822;2022-08-21T06:17:06;100996.06;;;21.65;42.04
62544;BME280;48597;49.030;1.822;2022-08-21T06:19:32;100987.06;;;21.66;42.34
62544;BME280;48597;49.030;1.822;2022-08-21T06:21:58;100979.03;;;21.66;42.67
62544;BME280;48597;49.030;1.822;2022-08-21T06:24:24;100985.22;;;21.66;42.70
62544;BME280;48597;49.030;1.822;2022-08-21T06:26:49;100984.22;;;21.67;43.21
62544;BME280;48597;49.030;1.822;2022-08-21T06:29:15;100975.19;;;21.68;43.82
62544;BME280;48597;49.030;1.822;2022-08-21T06:31:44;100974.88;;;21.71;44.39
62544;BME280;48597;49.030;1.822;2022-08-21T06:34:10;100975.88;;;21.70;44.51
62544;BME280;48597;49.030;1.822;2022-08-21T06:36:36;100978.25;;;21.73;44.87
62544;BME280;48597;49.030;1.822;2022-08-21T06:39:01;100977.22;;;21.74;45.15
62544;BME280;48597;49.030;1.822;2022-08-21T06:41:27;100974.38;;;21.76;45.03
62544;BME280;48597;49.030;1.822;2022-08-21T06:43:53;100971.56;;;21.77;44.92
62544;BME280;48597;49.030;1.822;2022-08-21T06:46:19;100974.06;;;21.79;45.62
62544;BME280;48597;49.030;1.822;2022-08-21T06:48:45;100974.59;;;21.83;45.70
62544;BME280;48597;49.030;1.822;2022-08-21T06:51:10;100973.44;;;21.85;45.71
62544;BME280;48597;49.030;1.822;2022-08-21T06:53:36;100972.59;;;21.85;46.04
62544;BME280;48597;49.030;1.822;2022-08-21T06:56:02;100976.78;;;21.87;45.82
62544;BME280;48597;49.030;1.822;2022-08-21T06:58:27;100968.75;;;21.87;46.04
62544;BME280;48597;49.030;1.822;2022-08-21T07:00:53;100970.94;;;21.92;45.78
62544;BME280;48597;49.030;1.822;2022-08-21T07:03:24;100973.63;;;21.92;46.02
62544;BME280;48597;49.030;1.822;2022-08-21T07:05:51;100974.47;;;21.92;46.15
62544;BME280;48597;49.030;1.822;2022-08-21T07:08:16;100973.16;;;21.96;45.99
62544;BME280;48597;49.030;1.822;2022-08-21T07:10:42;100978.34;;;21.98;46.25
62544;BME280;48597;49.030;1.822;2022-08-21T07:13:07;100979.03;;;22.00;46.14
62544;BME280;48597;49.030;1.822;2022-08-21T07:15:33;100971.81;;;22.00;46.56
62544;BME280;48597;49.030;1.822;2022-08-21T07:17:59;100966.31;;;22.02;46.56
62544;BME280;48597;49.030;1.822;2022-08-21T07:20:26;100967.81;;;22.04;46.65
62544;BME280;48597;49.030;1.822;2022-08-21T07:22:51;100959.63;;;22.06;46.60
62544;BME280;48597;49.030;1.822;2022-08-21T07:25:17;100968.03;;;22.11;46.76
62544;BME280;48597;49.030;1.822;2022-08-21T07:27:42;100960.72;;;22.13;46.72
62544;BME280;48597;49.030;1.822;2022-08-21T07:30:08;100961.22;;;22.17;46.88
62544;BME280;48597;49.030;1.822;2022-08-21T07:32:34;100956.69;;;22.17;46.82
62544;BME280;48597;49.030;1.822;2022-08-21T07:34:59;100947.16;;;22.23;47.22
62544;BME280;48597;49.030;1.822;2022-08-21T07:37:24;100954.88;;;22.26;46.59
62544;BME280;48597;49.030;1.822;2022-08-21T07:39:50;100959.94;;;22.29;47.32
62544;BME280;48597;49.030;1.822;2022-08-21T07:42:16;100952.53;;;22.31;46.61
62544;BME280;48597;49.030;1.822;2022-08-21T07:44:42;100955.75;;;22.35;47.43
62544;BME280;48597;49.030;1.822;2022-08-21T07:47:08;100961.78;;;22.37;46.84
62544;BME280;48597;49.030;1.822;2022-08-21T07:49:33;100948.22;;;22.38;46.74
62544;BME280;48597;49.030;1.822;2022-08-21T07:51:59;100955.94;;;22.41;46.88
62544;BME280;48597;49.030;1.822;2022-08-21T07:54:25;100948.53;;;22.43;46.58
62544;BME280;48597;49.030;1.822;2022-08-21T07:56:50;100952.75;;;22.46;46.92
62544;BME280;48597;49.030;1.822;2022-08-21T07:59:16;100948.09;;;22.48;46.78
62544;BME280;48597;49.030;1.822;2022-08-21T08:01:41;100947.72;;;22.51;46.79
62544;BME280;48597;49.030;1.822;2022-08-21T08:04:06;100944.06;;;22.52;46.59
62544;BME280;48597;49.030;1.822;2022-08-21T08:06:32;100934.00;;;22.54;46.79
62544;BME280;48597;49.030;1.822;2022-08-21T08:08:57;100947.09;;;22.57;46.42
62544;BME280;48597;49.030;1.822;2022-08-21T08:11:23;100935.34;;;22.58;46.46
62544;BME280;48597;49.030;1.822;2022-08-21T08:13:50;100937.69;;;22.61;46.88
62544;BME280;48597;49.030;1.822;2022-08-21T08:16:16;100939.03;;;22.65;46.58
62544;BME280;48597;49.030;1.822;2022-08-21T08:18:42;100937.19;;;22.66;47.01
62544;BME280;48597;49.030;1.822;2022-08-21T08:21:09;100941.41;;;22.68;46.91
62544;BME280;48597;49.030;1.822;2022-08-21T08:23:35;100943.06;;;22.69;46.66
62544;BME280;48597;49.030;1.822;2022-08-21T08:26:00;100936.56;;;22.72;46.57
62544;BME280;48597;49.030;1.822;2022-08-21T08:28:28;100931.00;;;22.73;46.50
62544;BME280;48597;49.030;1.822;2022-08-21T08:30:53;100929.16;;;22.74;46.89
62544;BME280;48597;49.030;1.822;2022-08-21T08:33:19;100934.19;;;22.77;46.82
62544;BME280;48597;49.030;1.822;2022-08-21T08:35:47;100930.34;;;22.79;46.53
62544;BME280;48597;49.030;1.822;2022-08-21T08:38:13;100928.50;;;22.80;46.63
62544;BME280;48597;49.030;1.822;2022-08-21T08:41:03;100925.63;;;22.82;46.54
62544;BME280;48597;49.030;1.822;2022-08-21T08:43:32;100925.47;;;22.83;46.34
62544;BME280;48597;49.030;1.822;2022-08-21T08:46:03;100916.44;;;22.84;46.41
62544;BME280;48597;49.030;1.822;2022-08-21T08:51:19;100909.72;;;22.88;46.31
62544;BME280;48597;49.030;1.822;2022-08-21T08:53:59;100914.06;;;22.89;46.16
62544;BME280;48597;49.030;1.822;2022-08-21T08:56:30;100908.56;;;22.91;46.07
62544;BME280;48597;49.030;1.822;2022-08-21T08:59:00;100907.41;;;22.93;46.78
62544;BME280;48597;49.030;1.822;2022-08-21T09:01:27;100903.03;;;22.92;46.01
62544;BME280;48597;49.030;1.822;2022-08-21T09:03:52;100903.53;;;22.96;46.26
62544;BME280;48597;49.030;1.822;2022-08-21T09:06:41;100901.38;;;22.99;46.19
62544;BME280;48597;49.030;1.822;2022-08-21T09:09:28;100898.69;;;22.99;46.31
62544;BME280;48597;49.030;1.822;2022-08-21T09:12:08;100894.66;;;23.03;46.08
62544;BME280;48597;49.030;1.822;2022-08-21T09:18:16;100902.19;;;23.08;45.91
62544;BME280;48597;49.030;1.822;2022-08-21T09:26:18;100893.44;;;23.14;45.75
62544;BME280;48597;49.030;1.822;2022-08-21T09:28:45;100882.22;;;23.19;46.22
62544;BME280;48597;49.030;1.822;2022-08-21T09:31:31;100873.66;;;23.23;46.47
62544;BME280;48597;49.030;1.822;2022-08-21T09:34:09;100870.44;;;23.28;46.51
62544;BME280;48597;49.030;1.822;2022-08-21T09:36:44;100859.38;;;23.31;46.67
62544;BME280;48597;49.030;1.822;2022-08-21T09:39:12;100866.22;;;23.34;46.66
62544;BME280;48597;49.030;1.822;2022-08-21T09:41:38;100865.88;;;23.37;46.66
62544;BME280;48597;49.030;1.822;2022-08-21T09:44:07;100865.53;;;23.40;46.98
62544;BME280;48597;49.030;1.822;2022-08-21T09:46:33;100857.16;;;23.43;46.80
62544;BME280;48597;49.030;1.822;2022-08-21T09:49:00;100845.38;;;23.44;47.01
62544;BME280;48597;49.030;1.822;2022-08-21T09:51:35;100840.66;;;23.46;46.82
62544;BME280;48597;49.030;1.822;2022-08-21T09:56:38;100839.50;;;23.48;47.14
62544;BME280;48597;49.030;1.822;2022-08-21T09:59:44;100840.16;;;23.50;46.96
62544;BME280;48597;49.030;1.822;2022-08-21T10:02:30;100844.53;;;23.51;47.19
62544;BME280;48597;49.030;1.822;2022-08-21T10:05:01;100850.72;;;23.52;47.18
62544;BME280;48597;49.030;1.822;2022-08-21T10:07:31;100846.19;;;23.52;47.19
62544;BME280;48597;49.030;1.822;2022-08-21T10:13:01;100825.53;;;23.53;46.97
62544;BME280;48597;49.030;1.822;2022-08-21T10:15:44;100815.63;;;23.53;47.07
62544;BME280;48597;49.030;1.822;2022-08-21T10:18:20;100817.47;;;23.53;47.13
62544;BME280;48597;49.030;1.822;2022-08-21T10:21:24;100820.00;;;23.55;46.90
62544;BME280;48597;49.030;1.822;2022-08-21T10:24:09;100822.50;;;23.56;46.93
62544;BME280;48597;49.030;1.822;2022-08-21T10:34:53;100833.06;;;23.58;46.98
62544;BME280;48597;49.030;1.822;2022-08-21T10:40:25;100840.13;;;23.59;47.12
62544;BME280;48597;49.030;1.822;2022-08-21T10:42:58;100841.78;;;23.60;47.04
62544;BME280;48597;49.030;1.822;2022-08-21T10:45:45;100844.28;;;23.61;47.06
62544;BME280;48597;49.030;1.822;2022-08-21T10:48:25;100849.66;;;23.61;47.21
62544;BME280;48597;49.030;1.822;2022-08-21T10:53:55;100854.88;;;23.63;47.26
62544;BME280;48597;49.030;1.822;2022-08-21T10:56:24;100855.72;;;23.63;47.13
62544;BME280;48597;49.030;1.822;2022-08-21T11:01:53;100842.94;;;23.65;47.11
62544;BME280;48597;49.030;1.822;2022-08-21T11:07:29;100851.72;;;23.67;47.22
62544;BME280;48597;49.030;1.822;2022-08-21T11:10:00;100858.59;;;23.70;47.25
62544;BME280;48597;49.030;1.822;2022-08-21T11:12:44;100847.66;;;23.71;47.49
62544;BME280;48597;49.030;1.822;2022-08-21T11:15:33;100842.28;;;23.71;47.48
62544;BME280;48597;49.030;1.822;2022-08-21T11:18:26;100844.63;;;23.74;47.46
62544;BME280;48597;49.030;1.822;2022-08-21T11:21:09;100850.00;;;23.74;47.01
62544;BME280;48597;49.030;1.822;2022-08-21T11:23:45;100843.59;;;23.75;46.92
62544;BME280;48597;49.030;1.822;2022-08-21T11:26:17;100832.66;;;23.77;46.84
62544;BME280;48597;49.030;1.822;2022-08-21T11:29:11;100833.34;;;23.79;46.63
62544;BME280;48597;49.030;1.822;2022-08-21T11:35:20;100834.84;;;23.82;46.96
62544;BME280;48597;49.030;1.822;2022-08-21T11:43:42;100822.06;;;23.84;47.11
62544;BME280;48597;49.030;1.822;2022-08-21T11:49:31;100826.41;;;23.85;46.61
62544;BME280;48597;49.030;1.822;2022-08-21T11:52:08;100818.19;;;23.86;46.46
62544;BME280;48597;49.030;1.822;2022-08-21T11:54:46;100803.72;;;23.87;46.67
62544;BME280;48597;49.030;1.822;2022-08-21T11:57:39;100795.88;;;23.86;46.21
62544;BME280;48597;49.030;1.822;2022-08-21T12:00:31;100799.00;;;23.89;46.29
62544;BME280;48597;49.030;1.822;2022-08-21T12:03:08;100799.88;;;23.90;46.31
62544;BME280;48597;49.030;1.822;2022-08-21T12:05:39;100803.19;;;23.92;45.98
62544;BME280;48597;49.030;1.822;2022-08-21T12:08:10;100799.88;;;23.90;46.02
62544;BME280;48597;49.030;1.822;2022-08-21T12:10:39;100794.50;;;23.90;46.05
62544;BME280;48597;49.030;1.822;2022-08-21T12:13:21;100796.81;;;23.93;46.11
62544;BME280;48597;49.030;1.822;2022-08-21T12:15:47;100794.13;;;23.93;45.97
62544;BME280;48597;49.030;1.822;2022-08-21T12:18:28;100776.63;;;23.97;46.09
62544;BME280;48597;49.030;1.822;2022-08-21T12:23:42;100769.50;;;24.04;45.71
62544;BME280;48597;49.030;1.822;2022-08-21T12:26:24;100760.47;;;24.05;45.73
62544;BME280;48597;49.030;1.822;2022-08-21T12:28:51;100772.69;;;24.08;45.63
62544;BME280;48597;49.030;1.822;2022-08-21T12:31:27;100761.56;;;24.11;45.96
62544;BME280;48597;49.030;1.822;2022-08-21T12:34:01;100765.09;;;24.11;45.36
62544;BME280;48597;49.030;1.822;2022-08-21T12:36:49;100769.09;;;24.15;45.52
62544;BME280;48597;49.030;1.822;2022-08-21T12:39:23;100769.78;;;24.17;45.61
62544;BME280;48597;49.030;1.822;2022-08-21T12:41:51;100767.72;;;24.19;45.58
62544;BME280;48597;49.030;1.822;2022-08-21T12:44:27;100775.78;;;24.19;45.41
62544;BME280;48597;49.030;1.822;2022-08-21T12:47:02;100772.94;;;24.21;45.85
62544;BME280;48597;49.030;1.822;2022-08-21T12:49:41;100768.56;;;24.20;45.39
62544;BME280;48597;49.030;1.822;2022-08-21T12:52:19;100765.03;;;24.19;45.59
62544;BME280;48597;49.030;1.822;2022-08-21T12:54:46;100767.72;;;24.19;45.58
62544;BME280;48597;49.030;1.822;2022-08-21T12:57:26;100772.06;;;24.20;45.60
62544;BME280;48597;49.030;1.822;2022-08-21T12:59:59;100766.53;;;24.22;45.54
62544;BME280;48597;49.030;1.822;2022-08-21T13:02:31;100774.06;;;24.27;45.21
62544;BME280;48597;49.030;1.822;2022-08-21T13:05:02;100767.66;;;24.28;45.21
62544;BME280;48597;49.030;1.822;2022-08-21T13:07:30;100760.41;;;24.28;45.40
62544;BME280;48597;49.030;1.822;2022-08-21T13:10:04;100746.81;;;24.30;45.52
62544;BME280;48597;49.030;1.822;2022-08-21T13:12:31;100750.13;;;24.32;45.38
62544;BME280;48597;49.030;1.822;2022-08-21T13:15:01;100753.84;;;24.31;45.14
62544;BME280;48597;49.030;1.822;2022-08-21T13:17:31;100752.66;;;24.33;45.19
62544;BME280;48597;49.030;1.822;2022-08-21T13:20:02;100758.69;;;24.35;45.11
62544;BME280;48597;49.030;1.822;2022-08-21T13:22:28;100756.81;;;24.36;45.17
62544;BME280;48597;49.030;1.822;2022-08-21T13:24:55;100749.44;;;24.38;45.14
62544;BME280;48597;49.030;1.822;2022-08-21T13:27:29;100751.28;;;24.37;44.91
62544;BME280;48597;49.030;1.822;2022-08-21T13:30:13;100742.69;;;24.42;45.01
62544;BME280;48597;49.030;1.822;2022-08-21T13:32:44;100746.88;;;24.44;44.86
62544;BME280;48597;49.030;1.822;2022-08-21T13:35:18;100742.13;;;24.46;44.70
62544;BME280;48597;49.030;1.822;2022-08-21T13:37:46;100746.69;;;24.46;45.10
62544;BME280;48597;49.030;1.822;2022-08-21T13:40:19;100745.66;;;24.47;44.81
62544;BME280;48597;49.030;1.822;2022-08-21T13:42:46;100748.19;;;24.48;44.77
62544;BME280;48597;49.030;1.822;2022-08-21T13:45:20;100746.34;;;24.49;44.61
62544;BME280;48597;49.030;1.822;2022-08-21T13:47:47;100740.13;;;24.48;44.71
62544;BME280;48597;49.030;1.822;2022-08-21T13:50:15;100745.09;;;24.52;44.57
62544;BME280;48597;49.030;1.822;2022-08-21T13:52:54;100737.03;;;24.52;44.68